createdAt,value
2023-05-22T00:00:56.198Z,18.01
2023-05-22T00:06:18.494Z,17.93
2023-05-22T00:11:39.656Z,17.94
2023-05-22T00:17:01.023Z,17.98
2023-05-22T00:22:22.383Z,17.96
2023-05-22T00:27:43.905Z,17.90
2023-05-22T00:33:05.153Z,17.83
2023-05-22T00:38:32.625Z,17.73
2023-05-22T00:43:53.890Z,17.65
2023-05-22T00:49:14.642Z,17.57
2023-05-22T00:54:36.195Z,17.51
2023-05-22T00:59:57.954Z,17.30
2023-05-22T01:05:19.073Z,17.09
2023-05-22T01:10:41.196Z,17.06
2023-05-22T01:16:18.990Z,16.94
2023-05-22T01:21:53.464Z,16.86
2023-05-22T01:27:35.356Z,16.84
2023-05-22T01:32:58.130Z,16.95
2023-05-22T01:38:20.533Z,16.92
2023-05-22T01:43:42.527Z,16.85
2023-05-22T01:49:03.545Z,16.77
2023-05-22T01:54:42.282Z,16.69
2023-05-22T02:00:10.198Z,16.65
2023-05-22T02:05:39.918Z,16.51
2023-05-22T02:11:03.345Z,16.42
2023-05-22T02:16:24.686Z,16.35
2023-05-22T02:21:45.564Z,16.27
2023-05-22T02:27:06.595Z,16.24
2023-05-22T02:32:28.535Z,16.20
2023-05-22T02:37:49.623Z,16.25
2023-05-22T02:43:10.657Z,16.20
2023-05-22T02:48:32.194Z,16.10
2023-05-22T02:53:53.471Z,16.00
2023-05-22T02:59:14.347Z,16.03
2023-05-22T03:04:38.755Z,16.15
2023-05-22T03:10:00.185Z,16.19
2023-05-22T03:15:21.556Z,15.98
2023-05-22T03:20:45.252Z,16.02
2023-05-22T03:26:07.845Z,15.96
2023-05-22T03:31:33.842Z,16.06
2023-05-22T03:37:05.178Z,16.11
2023-05-22T03:42:26.744Z,16.02
2023-05-22T03:47:47.606Z,16.04
2023-05-22T03:53:08.866Z,16.18
2023-05-22T03:58:31.689Z,16.24
2023-05-22T04:03:53.526Z,16.25
2023-05-22T04:09:15.768Z,16.65
2023-05-22T04:14:37.136Z,16.95
2023-05-22T04:19:58.430Z,17.19
2023-05-22T04:25:19.194Z,17.58
2023-05-22T04:30:40.857Z,17.75
2023-05-22T04:36:02.892Z,18.11
2023-05-22T04:41:26.762Z,18.43
2023-05-22T04:46:48.149Z,18.96
2023-05-22T04:52:08.951Z,19.31
2023-05-22T04:57:30.055Z,19.66
2023-05-22T05:02:51.247Z,19.85
2023-05-22T05:08:12.586Z,20.01
2023-05-22T05:13:33.992Z,20.23
2023-05-22T05:18:55.644Z,20.58
2023-05-22T05:24:19.871Z,20.84
2023-05-22T05:29:42.696Z,20.93
2023-05-22T05:35:12.389Z,21.07
2023-05-22T05:40:40.779Z,21.22
2023-05-22T05:46:06.315Z,21.29
2023-05-22T05:51:28.124Z,21.58
2023-05-22T05:56:49.396Z,21.78
2023-05-22T06:02:10.676Z,21.81
2023-05-22T06:07:32.276Z,21.71
2023-05-22T06:12:54.416Z,21.89
2023-05-22T06:18:17.359Z,22.10
2023-05-22T06:23:39.268Z,22.23
2023-05-22T06:29:02.090Z,22.46
2023-05-22T06:34:27.753Z,22.60
2023-05-22T06:39:50.548Z,22.78
2023-05-22T06:45:11.669Z,22.90
2023-05-22T06:50:43.581Z,23.18
2023-05-22T06:56:05.829Z,23.42
2023-05-22T07:01:45.461Z,23.56
2023-05-22T07:07:10.394Z,23.65
2023-05-22T07:12:34.812Z,23.69
2023-05-22T07:17:55.946Z,23.60
2023-05-22T07:23:17.514Z,23.73
2023-05-22T07:28:39.369Z,23.81
2023-05-22T07:34:06.844Z,24.15
2023-05-22T07:39:29.163Z,24.11
2023-05-22T07:44:51.610Z,24.03
2023-05-22T07:50:15.202Z,23.98
2023-05-22T07:55:40.078Z,24.02
2023-05-22T08:01:05.811Z,23.99
2023-05-22T08:06:28.239Z,24.12
2023-05-22T08:11:49.038Z,24.07
2023-05-22T08:17:10.426Z,23.93
2023-05-22T08:22:31.563Z,24.10
2023-05-22T08:27:52.424Z,24.11
2023-05-22T08:33:13.753Z,24.06
2023-05-22T08:38:34.924Z,24.18
2023-05-22T08:43:55.870Z,24.23
2023-05-22T08:49:18.637Z,24.23
2023-05-22T08:54:43.532Z,24.29
2023-05-22T09:00:05.107Z,24.23
2023-05-22T09:05:26.751Z,24.22
2023-05-22T09:10:48.159Z,24.12
2023-05-22T09:16:13.283Z,24.15
2023-05-22T09:21:37.349Z,24.11
2023-05-22T09:27:03.662Z,24.23
2023-05-22T09:32:25.101Z,24.43
2023-05-22T09:37:46.365Z,24.43
2023-05-22T09:43:11.437Z,24.47
2023-05-22T09:48:37.353Z,24.55
2023-05-22T09:54:03.650Z,24.71
2023-05-22T09:59:30.408Z,24.76
2023-05-22T10:04:56.442Z,24.78
2023-05-22T10:10:23.477Z,24.69
2023-05-22T10:15:46.920Z,24.62
2023-05-22T10:21:08.206Z,24.61
2023-05-22T10:26:30.477Z,24.59
2023-05-22T10:32:00.415Z,24.60
2023-05-22T10:37:43.442Z,24.46
2023-05-22T10:43:04.652Z,24.53
2023-05-22T10:48:26.044Z,24.55
2023-05-22T10:53:58.740Z,24.46
2023-05-22T10:59:34.979Z,24.50
2023-05-22T11:04:56.244Z,24.39
2023-05-22T11:10:54.896Z,24.18
2023-05-22T11:16:16.316Z,24.16
2023-05-22T11:21:45.303Z,24.31
2023-05-22T11:27:07.711Z,24.33
2023-05-22T11:32:29.514Z,24.42
2023-05-22T11:37:51.974Z,24.50
2023-05-22T11:43:13.049Z,24.45
2023-05-22T11:48:36.574Z,24.38
2023-05-22T11:53:58.139Z,24.33
2023-05-22T11:59:22.184Z,24.38
2023-05-22T12:04:42.991Z,24.39
2023-05-22T12:10:07.398Z,24.31
2023-05-22T12:15:28.739Z,24.20
2023-05-22T12:20:55.623Z,24.11
2023-05-22T12:26:17.274Z,24.15
2023-05-22T12:31:38.980Z,24.15
2023-05-22T12:37:00.260Z,24.32
2023-05-22T12:42:21.575Z,24.55
2023-05-22T12:47:42.392Z,24.65
2023-05-22T12:53:03.707Z,24.65
2023-05-22T12:58:24.667Z,24.66
2023-05-22T13:03:46.516Z,24.66
2023-05-22T13:09:07.611Z,24.72
2023-05-22T13:14:28.333Z,24.76
2023-05-22T13:19:49.272Z,24.91
2023-05-22T13:25:10.406Z,24.96
2023-05-22T13:30:32.258Z,24.97
2023-05-22T13:35:54.430Z,24.92
2023-05-22T13:41:15.818Z,24.83
2023-05-22T13:46:39.360Z,24.66
2023-05-22T13:52:02.148Z,24.47
2023-05-22T13:57:22.828Z,24.48
2023-05-22T14:02:44.643Z,24.46
2023-05-22T14:08:05.515Z,24.44
2023-05-22T14:13:26.405Z,24.38
2023-05-22T14:18:47.209Z,24.28
2023-05-22T14:24:08.120Z,24.18
2023-05-22T14:29:29.030Z,24.14
2023-05-22T14:34:49.803Z,24.21
2023-05-22T14:40:11.143Z,24.24
2023-05-22T14:45:32.162Z,24.27
2023-05-22T14:50:55.853Z,24.33
2023-05-22T14:56:16.899Z,24.35
2023-05-22T15:01:39.024Z,24.34
2023-05-22T15:07:00.346Z,24.39
2023-05-22T15:12:22.665Z,24.35
2023-05-22T15:17:43.993Z,24.32
2023-05-22T15:23:05.939Z,24.33
2023-05-22T15:28:26.759Z,24.23
2023-05-22T15:33:47.813Z,24.21
2023-05-22T15:39:09.128Z,24.11
2023-05-22T15:44:29.745Z,24.09
2023-05-22T15:49:50.636Z,24.10
2023-05-22T15:55:11.565Z,24.02
2023-05-22T16:00:38.590Z,23.94
2023-05-22T16:05:59.677Z,23.92
2023-05-22T16:11:20.638Z,23.93
2023-05-22T16:16:43.932Z,23.89
2023-05-22T16:22:05.610Z,23.87
2023-05-22T16:27:26.609Z,23.84
2023-05-22T16:32:48.523Z,23.85
2023-05-22T16:38:12.258Z,23.78
2023-05-22T16:43:33.177Z,23.60
2023-05-22T16:48:54.036Z,23.54
2023-05-22T16:54:14.728Z,23.46
2023-05-22T16:59:35.642Z,23.34
2023-05-22T17:04:57.217Z,23.24
2023-05-22T17:10:18.423Z,23.15
2023-05-22T17:15:39.389Z,23.05
2023-05-22T17:21:00.879Z,23.01
2023-05-22T17:26:21.829Z,22.93
2023-05-22T17:31:42.794Z,22.89
2023-05-22T17:37:03.875Z,22.87
2023-05-22T17:42:25.526Z,22.92
2023-05-22T17:47:47.341Z,22.86
2023-05-22T17:53:08.163Z,22.80
2023-05-22T17:58:29.075Z,22.69
2023-05-22T18:03:50.484Z,22.51
2023-05-22T18:09:11.504Z,22.35
2023-05-22T18:14:32.376Z,22.21
2023-05-22T18:19:53.233Z,22.04
2023-05-22T18:25:14.232Z,21.93
2023-05-22T18:30:35.408Z,21.86
2023-05-22T18:35:58.049Z,21.76
2023-05-22T18:41:18.773Z,21.65
2023-05-22T18:46:39.813Z,21.61
2023-05-22T18:52:01.799Z,21.46
2023-05-22T18:57:22.868Z,21.38
2023-05-22T19:02:44.000Z,21.27
2023-05-22T19:08:06.731Z,21.22
2023-05-22T19:13:27.648Z,21.17
2023-05-22T19:18:48.417Z,21.04
2023-05-22T19:24:09.220Z,21.01
2023-05-22T19:29:30.055Z,21.00
2023-05-22T19:34:51.035Z,20.94
2023-05-22T19:40:12.618Z,20.88
2023-05-22T19:45:33.511Z,20.81
2023-05-22T19:50:54.580Z,20.75
2023-05-22T19:56:15.205Z,20.78
2023-05-22T20:01:39.317Z,20.74
2023-05-22T20:07:02.384Z,20.76
2023-05-22T20:12:23.419Z,20.80
2023-05-22T20:17:47.613Z,20.76
2023-05-22T20:23:08.842Z,20.54
2023-05-22T20:28:30.086Z,20.44
2023-05-22T20:33:51.655Z,20.32
2023-05-22T20:39:12.600Z,20.31
2023-05-22T20:44:33.643Z,20.27
2023-05-22T20:49:54.803Z,20.21
2023-05-22T20:55:15.752Z,20.20
2023-05-22T21:00:36.508Z,20.16
2023-05-22T21:05:58.791Z,20.09
2023-05-22T21:11:21.078Z,20.09
2023-05-22T21:16:42.132Z,20.01
2023-05-22T21:22:02.970Z,19.86
2023-05-22T21:27:23.705Z,19.75
2023-05-22T21:32:44.539Z,19.78
2023-05-22T21:38:05.466Z,19.82
2023-05-22T21:43:26.535Z,19.84
2023-05-22T21:48:47.218Z,19.82
2023-05-22T21:54:08.032Z,19.76
2023-05-22T21:59:28.729Z,19.75
2023-05-22T22:04:49.417Z,19.61
2023-05-22T22:10:10.556Z,19.53
2023-05-22T22:15:34.308Z,19.46
2023-05-22T22:20:55.943Z,19.48
2023-05-22T22:26:17.127Z,19.52
2023-05-22T22:31:38.426Z,19.58
2023-05-22T22:36:59.226Z,19.44
2023-05-22T22:42:19.817Z,19.32
2023-05-22T22:47:40.536Z,19.18
2023-05-22T22:53:01.131Z,19.15
2023-05-22T22:58:23.039Z,19.18
2023-05-22T23:03:43.711Z,19.12
2023-05-22T23:09:04.969Z,19.03
2023-05-22T23:14:28.082Z,19.02
2023-05-22T23:19:48.997Z,18.94
2023-05-22T23:25:09.936Z,18.86
2023-05-22T23:30:30.949Z,18.89
2023-05-22T23:35:51.894Z,18.85
2023-05-22T23:41:14.090Z,18.77
2023-05-22T23:46:35.853Z,18.68
2023-05-22T23:51:56.675Z,18.67
2023-05-22T23:57:17.343Z,18.77
